DW9170 Weather Reports


Display with metric or nautical units.
time (UTC)temp
F
wind
direction
speed
MPH
gust
MPH
rain 1hr
in
rain 24hr
in
rain mn
in
humidity
%
barometer
mb
20171119180147 40 305 9.0 21.0 0.02 0.00 0.93 64 992.1
20171119174655 40 281 10.0 21.0 0.03 0.00 0.93 64 991.5
20171119173151 41 344 7.0 22.0 0.02 0.00 0.92 65 991.1
20171119171654 41 240 5.0 22.0 0.03 0.00 0.92 67 990.4
20171119170154 41 332 2.0 17.0 0.03 0.00 0.91 67 990.5
20171119164706 41 272 16.0 29.0 0.00 0.00 0.90 69 990.0
20171119163144 42 251 9.0 22.0 0.00 0.00 0.90 68 989.2
20171119161655 42 274 13.0 24.0 0.00 0.00 0.89 70 989.5
20171119160151 42 319 12.0 19.0 0.00 0.00 0.88 69 989.1
20171119154655 44 270 8.0 0.0 0.00 0.00 0.87 69 988.7
20171119153149 47 308 7.0 28.0 0.08 0.87 0.86 71 988.4
20171119151640 50 230 8.0 23.0 0.07 0.85 0.84 71 987.8
20171119150205 53 265 10.0 22.0 0.08 0.83 0.82 77 987.2
20171119144648 53 262 3.0 10.0 0.09 0.81 0.80 81 986.5
20171119143150 53 241 1.0 5.0 0.10 0.79 0.78 82 986.5
20171119141707 53 147 1.0 7.0 0.11 0.78 0.76 84 986.4
20171119140152 53 241 1.0 9.0 0.12 0.75 0.74 88 986.7
20171119134648 53 231 2.0 7.0 0.14 0.73 0.71 90 986.9
20171119133153 53 173 1.0 4.0 0.12 0.69 0.68 93 987.2
20171119131643 52 262 1.0 3.0 0.12 0.67 0.66 93 987.0
20171119130148 52 240 2.0 4.0 0.11 0.63 0.61 93 987.6
20171119124654 52 164 0.0 7.0 0.10 0.59 0.58 94 987.8
20171119123202 52 268 1.0 3.0 0.10 0.57 0.55 93 988.0
20171119121642 52 236 0.0 2.0 0.10 0.55 0.54 94 988.2
20171119120149 52 220 0.0 5.0 0.09 0.52 0.51 96 988.6
20171119114704 52 227 2.0 10.0 0.08 0.49 0.48 97 989.2
20171119113205 51 254 2.0 6.0 0.08 0.47 0.45 97 989.3
20171119111652 51 120 0.0 5.0 0.08 0.45 0.43 96 989.2
20171119110204 51 260 0.0 2.0 0.08 0.43 0.42 96 988.9
20171119104651 50 102 0.0 3.0 0.10 0.41 0.40 96 988.8
20171119103145 50 167 0.0 2.0 0.10 0.39 0.38 97 989.4
20171119101658 50 210 0.0 3.0 0.10 0.37 0.36 97 989.8
20171119100151 49 148 0.0 3.0 0.10 0.35 0.33 92 990.7
20171119094630 48 140 0.0 5.0 0.08 0.31 0.27 97 991.0
20171119093143 46 260 0.0 4.0 0.08 0.29 0.27 97 991.3
20171119091700 45 276 0.0 0.0 0.10 0.27 0.26 96 991.6
20171119090156 45 276 1.0 2.0 0.12 0.25 0.24 95 991.8
20171119084654 45 277 0.0 0.0 0.12 0.23 0.22 95 992.6
20171119083153 45 276 0.0 3.0 0.11 0.21 0.20 96 992.5
20171119081647 44 264 0.0 1.0 0.08 0.17 0.15 95 992.9
20171119080151 44 264 0.0 2.0 0.05 0.13 0.12 96 993.4
20171119074645 44 328 0.0 2.0 0.04 0.11 0.10 94 993.7
20171119073144 43 328 0.0 2.0 0.03 0.10 0.09 94 994.3
20171119071644 41 355 0.0 3.0 0.03 0.09 0.08 95 994.5
20171119070140 37 354 2.0 6.0 0.03 0.08 0.07 92 994.8
20171119064641 35 247 0.0 0.0 0.03 0.07 0.06 90 995.4
20171119063151 35 247 0.0 0.0 0.05 0.07 0.05 89 995.9
20171119061654 35 247 0.0 0.0 0.05 0.06 0.05 89 996.3
20171119060149 34 247 0.0 0.0 0.04 0.05 0.04 89 996.6
20171119054707 34 247 0.0 0.0 0.04 0.04 0.03 88 997.0
20171119053205 34 247 0.0 0.0 0.04 0.03 0.01 88 997.4
20171119051723 35 247 0.0 0.0 0.02 0.01 0.00 88 997.8
20171119050206 34 247 0.0 0.0 0.02 0.01 0.00 88 998.1
20171119044709 34 247 0.0 0.0 0.01 0.00 0.19 88 998.6
20171119043204 34 247 0.0 0.0 0.01 0.00 0.18 88 999.1
20171119041706 34 247 0.0 0.0 0.01 0.00 0.18 88 999.5
20171119040221 34 247 0.0 0.0 0.01 0.00 0.18 88 999.6
20171119034720 34 247 0.0 0.0 0.02 0.00 0.17 88 1000.1
20171119033217 34 247 0.0 1.0 0.01 0.00 0.17 88 999.8
20171119031716 34 247 0.0 0.0 0.01 0.00 0.17 88 1000.6
20171119030222 34 247 0.0 0.0 0.02 0.00 0.17 87 1001.0
20171119024721 34 247 0.0 0.0 0.02 0.00 0.16 87 1001.4
20171119023200 34 247 0.0 1.0 0.04 0.00 0.16 87 1001.7
20171119021709 35 247 0.0 1.0 0.06 0.00 0.16 87 1001.9
20171119020207 35 246 3.0 4.0 0.06 0.00 0.15 87 1002.3
20171119014703 34 216 0.0 1.0 0.05 0.00 0.12 86 1002.7
20171119013213 34 216 0.0 1.0 0.04 0.00 0.12 86 1003.0
20171119011713 34 216 0.0 0.0 0.03 0.00 0.10 85 1003.5
20171119010215 35 216 0.0 0.0 0.02 0.00 0.09 86 1003.6
20171119004713 35 216 0.0 3.0 0.03 0.00 0.09 85 1003.8
20171119003209 35 216 0.0 2.0 0.03 0.00 0.08 85 1004.0
20171119001705 35 216 0.0 0.0 0.02 0.00 0.07 84 1004.4
20171119000211 35 216 0.0 0.0 0.02 0.00 0.07 84 1004.6
20171118234706 35 216 0.0 1.0 0.01 0.00 0.06 83 1005.1
20171118233205 35 216 0.0 0.0 0.01 0.00 0.05 81 1005.3
20171118231706 36 216 0.0 3.0 0.01 0.00 0.05 80 1005.5
20171118230220 35 216 0.0 2.0 0.01 0.00 0.05 77 1005.6
20171118224717 36 216 0.0 2.0 0.00 0.00 0.05 73 1005.5
20171118223219 37 216 0.0 2.0 0.00 0.00 0.04 69 1005.6
20171118221712 37 216 1.0 5.0 0.00 0.00 0.04 65 1005.8
20171118220207 37 216 0.0 3.0 0.00 0.00 0.04 64 1006.1
20171118214724 38 215 0.0 3.0 0.01 0.03 0.03 61 1006.2
20171118213216 37 216 0.0 1.0 0.01 0.03 0.03 59 1006.3
20171118210222 37 215 0.0 2.0 0.01 0.03 0.03 57 1006.8
20171118204718 38 211 1.0 2.0 0.01 0.02 0.02 54 1007.1
20171118203228 38 211 1.0 3.0 0.02 0.02 0.02 53 1007.3
20171118201707 38 196 0.0 3.0 0.02 0.02 0.02 50 1007.6
20171118200223 38 196 0.0 4.0 0.02 0.02 0.01 49 1007.6
20171118194724 38 211 1.0 3.0 0.01 0.01 0.01 49 1007.5
20171118193217 38 211 1.0 7.0 0.01 0.01 0.00 47 1007.5
20171118190228 38 236 0.0 3.0 0.00 0.00 0.00 47 1008.0
20171118183221 38 236 1.0 3.0 0.00 0.00 0.00 45 1009.0
20171118181722 38 236 1.0 6.0 0.00 0.00 0.00 46 1009.3